createdAt,value
2019-04-22T00:02:13.422Z,5.97
2019-04-22T00:04:52.625Z,5.83
2019-04-22T00:07:38.962Z,5.57
2019-04-22T00:10:04.839Z,5.87
2019-04-22T00:12:42.441Z,5.30
2019-04-22T00:15:08.665Z,5.50
2019-04-22T00:20:11.524Z,5.30
2019-04-22T00:25:10.573Z,5.20
2019-04-22T00:27:40.616Z,5.10
2019-04-22T00:30:13.285Z,5.20
2019-04-22T00:32:45.004Z,5.23
2019-04-22T00:35:13.262Z,4.70
2019-04-22T00:37:53.696Z,4.90
2019-04-22T00:40:21.050Z,5.03
2019-04-22T00:42:47.632Z,4.77
2019-04-22T00:45:25.662Z,4.77
2019-04-22T00:47:46.253Z,4.50
2019-04-22T00:50:24.976Z,4.93
2019-04-22T00:52:52.551Z,5.13
2019-04-22T00:55:18.203Z,4.70
2019-04-22T00:57:47.458Z,4.30
2019-04-22T01:00:21.398Z,4.90
2019-04-22T01:02:49.767Z,5.07
2019-04-22T01:05:21.499Z,4.90
2019-04-22T01:07:51.518Z,4.53
2019-04-22T01:10:19.055Z,4.57
2019-04-22T01:12:44.070Z,4.70
2019-04-22T01:15:23.322Z,4.80
2019-04-22T01:17:52.917Z,4.60
2019-04-22T01:20:38.437Z,4.53
2019-04-22T01:22:46.659Z,4.80
2019-04-22T01:25:15.943Z,4.40
2019-04-22T01:27:46.263Z,4.50
2019-04-22T01:30:09.485Z,4.40
2019-04-22T01:32:35.009Z,4.13
2019-04-22T01:35:15.136Z,4.80
2019-04-22T01:37:46.006Z,4.60
2019-04-22T01:40:24.138Z,4.37
2019-04-22T01:43:03.765Z,4.20
2019-04-22T01:45:29.550Z,4.53
2019-04-22T01:47:55.376Z,4.67
2019-04-22T01:50:27.745Z,4.70
2019-04-22T01:53:00.917Z,4.40
2019-04-22T01:57:53.316Z,4.67
2019-04-22T02:00:16.437Z,4.43
2019-04-22T02:03:02.370Z,4.40
2019-04-22T02:05:24.325Z,4.93
2019-04-22T02:08:02.561Z,4.93
2019-04-22T02:10:34.669Z,4.60
2019-04-22T02:12:54.316Z,4.63
2019-04-22T02:15:23.778Z,4.50
2019-04-22T02:18:02.361Z,4.40
2019-04-22T02:20:28.171Z,4.43
2019-04-22T02:28:33.220Z,4.60
2019-04-22T02:38:51.900Z,4.23
2019-04-22T02:41:15.701Z,4.13
2019-04-22T02:43:47.073Z,4.53
2019-04-22T02:54:02.065Z,4.10
2019-04-22T02:56:18.710Z,4.33
2019-04-22T02:58:48.368Z,4.57
2019-04-22T03:03:58.711Z,4.53
2019-04-22T03:21:06.270Z,4.30
2019-04-22T03:34:38.307Z,4.37
2019-04-22T03:39:29.669Z,5.00
2019-04-22T03:41:48.231Z,4.93
2019-04-22T03:46:33.801Z,4.17
2019-04-22T03:49:13.291Z,4.67
2019-04-22T03:51:36.161Z,4.53
2019-04-22T03:59:09.710Z,4.77
2019-04-22T04:01:37.156Z,4.40
2019-04-22T04:04:08.989Z,4.13
2019-04-22T04:06:41.002Z,4.57
2019-04-22T04:09:04.684Z,4.10
2019-04-22T04:11:45.627Z,4.73
2019-04-22T04:19:07.108Z,4.53
2019-04-22T04:24:11.339Z,4.20
2019-04-22T04:29:21.607Z,5.57
2019-04-22T04:31:32.787Z,5.17
2019-04-22T04:34:03.925Z,4.90
2019-04-22T04:36:37.240Z,4.60
2019-04-22T04:39:01.015Z,5.30
2019-04-22T04:51:43.871Z,8.60
2019-04-22T04:54:12.961Z,9.50
2019-04-22T04:56:36.422Z,9.70
2019-04-22T04:59:16.333Z,8.90
2019-04-22T05:01:35.531Z,7.50
2019-04-22T05:04:15.063Z,6.80
2019-04-22T05:11:49.973Z,6.63
2019-04-22T05:14:06.306Z,6.63
2019-04-22T05:16:42.006Z,6.40
2019-04-22T05:21:48.555Z,5.77
2019-04-22T05:26:32.533Z,4.60
2019-04-22T05:29:08.552Z,4.50
2019-04-22T05:34:04.498Z,4.53
2019-04-22T05:36:38.453Z,4.13
2019-04-22T05:39:00.262Z,3.70
2019-04-22T05:44:03.246Z,4.33
2019-04-22T05:46:28.594Z,3.93
2019-04-22T05:49:09.868Z,3.93
2019-04-22T05:51:36.973Z,4.20
2019-04-22T05:54:01.393Z,4.20
2019-04-22T05:56:43.003Z,4.60
2019-04-22T05:59:04.598Z,3.87
2019-04-22T06:04:08.461Z,4.47
2019-04-22T06:06:37.166Z,4.00
2019-04-22T06:09:12.538Z,3.70
2019-04-22T06:11:50.958Z,4.03
2019-04-22T06:14:07.753Z,3.80
2019-04-22T06:16:44.019Z,4.30
2019-04-22T06:19:14.379Z,3.73
2019-04-22T06:21:46.185Z,4.10
2019-04-22T06:24:18.706Z,4.30
2019-04-22T06:29:14.950Z,3.77
2019-04-22T06:32:06.897Z,3.40
2019-04-22T06:34:17.706Z,4.27
2019-04-22T06:36:45.202Z,3.37
2019-04-22T06:39:14.301Z,3.83
2019-04-22T06:46:47.507Z,3.50
2019-04-22T06:49:19.652Z,3.67
2019-04-22T06:51:46.884Z,3.83
2019-04-22T06:54:14.098Z,3.80
2019-04-22T06:56:42.812Z,4.10
2019-04-22T06:59:11.619Z,3.90
2019-04-22T07:01:43.205Z,3.90
2019-04-22T07:04:09.288Z,3.67
2019-04-22T07:06:48.640Z,3.50
2019-04-22T07:11:43.210Z,3.93
2019-04-22T07:14:09.370Z,3.73
2019-04-22T07:16:44.673Z,3.77
2019-04-22T07:19:15.130Z,3.30
2019-04-22T07:21:46.931Z,3.40
2019-04-22T07:24:35.624Z,3.70
2019-04-22T07:26:44.975Z,3.30
2019-04-22T07:29:17.242Z,3.20
2019-04-22T07:31:51.332Z,3.30
2019-04-22T07:34:23.392Z,3.60
2019-04-22T07:36:53.503Z,3.50
2019-04-22T07:39:15.657Z,3.37
2019-04-22T07:41:44.648Z,3.47
2019-04-22T07:44:16.652Z,3.93
2019-04-22T07:46:54.685Z,3.80
2019-04-22T07:49:18.372Z,3.63
2019-04-22T07:51:44.174Z,4.00
2019-04-22T07:54:24.345Z,3.63
2019-04-22T07:56:53.878Z,3.60
2019-04-22T07:59:15.345Z,3.63
2019-04-22T08:02:04.779Z,3.90
2019-04-22T08:04:23.037Z,3.73
2019-04-22T08:06:52.256Z,3.70
2019-04-22T08:09:19.627Z,3.60
2019-04-22T08:11:52.538Z,3.70
2019-04-22T08:14:24.261Z,4.00
2019-04-22T08:16:54.705Z,3.97
2019-04-22T08:19:20.379Z,3.50
2019-04-22T08:21:54.873Z,3.90
2019-04-22T08:27:04.650Z,3.90
2019-04-22T08:29:22.052Z,4.20
2019-04-22T08:34:19.583Z,4.10
2019-04-22T08:37:22.789Z,4.40
2019-04-22T08:39:18.724Z,4.87
2019-04-22T08:41:43.417Z,4.53
2019-04-22T08:44:36.149Z,4.13
2019-04-22T08:46:57.721Z,4.30
2019-04-22T08:49:24.542Z,4.43
2019-04-22T08:51:49.423Z,4.70
2019-04-22T08:54:18.169Z,4.13
2019-04-22T08:59:18.005Z,4.07
2019-04-22T09:01:49.161Z,4.20
2019-04-22T09:04:16.147Z,4.30
2019-04-22T09:07:10.565Z,4.30
2019-04-22T09:09:26.995Z,4.20
2019-04-22T09:11:57.943Z,5.03
2019-04-22T09:14:34.502Z,5.10
2019-04-22T09:16:54.755Z,4.78
2019-04-22T09:19:24.210Z,5.12
2019-04-22T09:22:03.390Z,5.45
2019-04-22T09:24:25.153Z,4.60
2019-04-22T09:26:58.869Z,4.65
2019-04-22T09:29:29.767Z,4.70
2019-04-22T09:32:03.472Z,4.50
2019-04-22T09:34:29.770Z,4.40
2019-04-22T09:37:04.723Z,4.30
2019-04-22T09:39:30.301Z,3.95
2019-04-22T09:41:57.261Z,4.00
2019-04-22T09:44:34.777Z,4.60
2019-04-22T09:47:01.923Z,3.98
2019-04-22T09:49:26.777Z,4.37
2019-04-22T09:51:58.659Z,4.20
2019-04-22T09:54:49.643Z,3.80
2019-04-22T09:56:55.020Z,3.50
2019-04-22T09:59:33.044Z,4.10
2019-04-22T10:02:14.605Z,4.25
2019-04-22T10:04:34.715Z,4.25
2019-04-22T10:06:54.664Z,4.10
2019-04-22T10:12:02.707Z,3.80
2019-04-22T10:14:32.099Z,3.62
2019-04-22T10:17:04.697Z,3.95
2019-04-22T10:19:36.943Z,3.85
2019-04-22T10:22:08.572Z,3.80
2019-04-22T10:24:36.893Z,3.35
2019-04-22T10:27:01.768Z,3.90
2019-04-22T10:29:41.679Z,3.70
2019-04-22T10:32:00.924Z,3.40
2019-04-22T10:34:20.357Z,3.20
2019-04-22T10:36:44.090Z,3.37
2019-04-22T10:39:10.755Z,3.52
2019-04-22T10:41:39.209Z,3.65
2019-04-22T10:44:08.689Z,3.20
2019-04-22T10:46:37.947Z,3.60
2019-04-22T10:49:06.473Z,3.15
2019-04-22T10:51:34.882Z,3.85
2019-04-22T10:54:03.272Z,3.80
2019-04-22T10:56:32.690Z,3.45
2019-04-22T10:59:02.581Z,3.22
2019-04-22T11:01:31.748Z,3.40
2019-04-22T11:04:01.381Z,3.50
2019-04-22T11:06:33.626Z,3.52
2019-04-22T11:09:04.710Z,3.05
2019-04-22T11:11:42.446Z,3.85
2019-04-22T11:14:01.956Z,3.75
2019-04-22T11:16:31.725Z,3.35
2019-04-22T11:19:01.433Z,3.62
2019-04-22T11:21:29.958Z,3.55
2019-04-22T11:23:58.717Z,3.72
2019-04-22T11:26:28.279Z,3.75
2019-04-22T11:28:56.759Z,3.45
2019-04-22T11:31:26.456Z,3.40
2019-04-22T11:33:56.497Z,3.60
2019-04-22T11:36:28.661Z,3.80
2019-04-22T11:39:00.088Z,3.83
2019-04-22T11:41:25.625Z,4.20
2019-04-22T11:43:54.286Z,4.03
2019-04-22T11:46:23.220Z,4.30
2019-04-22T11:48:52.054Z,4.30
2019-04-22T11:51:22.038Z,4.15
2019-04-22T11:53:50.613Z,4.35
2019-04-22T11:56:20.721Z,4.03
2019-04-22T11:58:50.725Z,4.30
2019-04-22T12:01:21.736Z,3.98
2019-04-22T12:03:51.687Z,5.08
2019-04-22T12:06:21.962Z,4.70
2019-04-22T12:08:51.898Z,4.05
2019-04-22T12:11:20.726Z,4.17
2019-04-22T12:13:51.837Z,4.55
2019-04-22T12:16:21.274Z,5.20
2019-04-22T12:18:51.104Z,3.98
2019-04-22T12:21:21.314Z,4.22
2019-04-22T12:23:50.913Z,4.17
2019-04-22T12:26:20.998Z,3.95
2019-04-22T12:28:50.870Z,3.70
2019-04-22T12:31:19.698Z,4.12
2019-04-22T12:33:49.318Z,3.50
2019-04-22T12:36:18.338Z,3.85
2019-04-22T12:38:47.522Z,3.60
2019-04-22T12:41:17.796Z,3.80
2019-04-22T12:43:47.600Z,3.70
2019-04-22T12:46:16.437Z,3.55
2019-04-22T12:48:45.202Z,3.77
2019-04-22T12:51:15.384Z,5.47
2019-04-22T12:53:44.571Z,4.30
2019-04-22T12:56:15.410Z,5.87
2019-04-22T12:58:45.539Z,18.98
2019-04-22T13:01:15.163Z,4.87
2019-04-22T13:03:44.676Z,3.92
2019-04-22T13:06:14.225Z,3.37
2019-04-22T13:08:43.561Z,3.25
2019-04-22T13:11:17.518Z,3.55
2019-04-22T13:13:42.985Z,3.80
2019-04-22T13:16:13.223Z,4.30
2019-04-22T13:18:49.358Z,4.00
2019-04-22T13:21:13.095Z,3.85
2019-04-22T13:23:41.566Z,3.92
2019-04-22T13:26:10.706Z,3.75
2019-04-22T13:28:39.252Z,3.58
2019-04-22T13:31:07.865Z,3.60
2019-04-22T13:33:36.976Z,3.33
2019-04-22T13:36:05.977Z,2.75
2019-04-22T13:38:35.394Z,2.95
2019-04-22T13:41:16.402Z,2.90
2019-04-22T13:43:34.742Z,3.02
2019-04-22T13:46:03.892Z,2.77
2019-04-22T13:48:52.908Z,2.80
2019-04-22T13:51:30.268Z,2.90
2019-04-22T13:54:29.523Z,2.83
2019-04-22T13:56:24.832Z,2.80
2019-04-22T13:58:48.444Z,3.10
2019-04-22T14:01:07.574Z,2.55
2019-04-22T14:03:44.715Z,2.58
2019-04-22T14:06:13.333Z,2.35
2019-04-22T14:08:43.099Z,2.20
2019-04-22T14:11:21.564Z,2.12
2019-04-22T14:13:41.963Z,2.52
2019-04-22T14:16:11.011Z,2.77
2019-04-22T14:18:41.093Z,2.30
2019-04-22T14:21:09.964Z,2.90
2019-04-22T14:23:38.521Z,2.62
2019-04-22T14:26:07.295Z,2.58
2019-04-22T14:28:35.846Z,2.58
2019-04-22T14:31:04.473Z,2.60
2019-04-22T14:33:34.139Z,2.37
2019-04-22T14:36:02.988Z,2.70
2019-04-22T14:38:32.416Z,2.87
2019-04-22T14:41:02.435Z,2.92
2019-04-22T14:44:00.052Z,2.47
2019-04-22T14:46:27.563Z,4.37
2019-04-22T14:49:11.828Z,2.70
2019-04-22T14:51:20.547Z,2.60
2019-04-22T14:53:51.722Z,2.87
2019-04-22T14:56:02.409Z,3.00
2019-04-22T14:58:31.183Z,2.75
2019-04-22T15:01:01.119Z,3.00
2019-04-22T15:03:29.662Z,2.70
2019-04-22T15:05:58.066Z,2.70
2019-04-22T15:08:26.922Z,2.63
2019-04-22T15:10:55.844Z,2.75
2019-04-22T15:13:25.317Z,2.70
2019-04-22T15:15:58.641Z,2.80
2019-04-22T15:18:44.164Z,2.80
2019-04-22T15:21:14.571Z,2.63
2019-04-22T15:23:44.451Z,2.60
2019-04-22T15:26:12.980Z,2.63
2019-04-22T15:28:41.727Z,2.67
2019-04-22T15:31:11.173Z,2.30
2019-04-22T15:33:39.721Z,2.40
2019-04-22T15:36:08.165Z,2.50
2019-04-22T15:38:36.648Z,2.20
2019-04-22T15:41:06.860Z,2.30
2019-04-22T15:43:37.053Z,2.53
2019-04-22T15:46:05.850Z,2.20
2019-04-22T15:48:35.681Z,2.20
2019-04-22T15:51:04.844Z,2.33
2019-04-22T15:53:33.774Z,2.20
2019-04-22T15:56:03.098Z,2.20
2019-04-22T15:58:31.583Z,2.10
2019-04-22T16:01:10.777Z,2.00
2019-04-22T16:03:30.192Z,2.17
2019-04-22T16:05:59.780Z,2.23
2019-04-22T16:08:29.013Z,2.23
2019-04-22T16:10:59.885Z,2.07
2019-04-22T16:13:32.252Z,1.90
2019-04-22T16:15:58.608Z,2.20
2019-04-22T16:18:28.322Z,2.50
2019-04-22T16:20:58.378Z,2.47
2019-04-22T16:23:46.780Z,2.27
2019-04-22T16:26:33.036Z,1.93
2019-04-22T16:29:03.205Z,2.17
2019-04-22T16:31:31.832Z,1.97
2019-04-22T16:34:00.517Z,2.00
2019-04-22T16:36:29.185Z,2.10
2019-04-22T16:38:57.629Z,1.80
2019-04-22T16:41:26.483Z,1.90
2019-04-22T16:43:56.227Z,1.80
2019-04-22T16:46:25.600Z,2.03
2019-04-22T16:48:54.059Z,2.10
2019-04-22T16:51:22.498Z,1.83
2019-04-22T16:53:51.104Z,2.07
2019-04-22T16:56:20.614Z,2.03
2019-04-22T16:58:50.583Z,2.00
2019-04-22T17:01:30.483Z,2.10
2019-04-22T17:04:00.698Z,2.07
2019-04-22T17:06:31.813Z,2.23
2019-04-22T17:09:00.509Z,2.20
2019-04-22T17:11:29.800Z,2.10
2019-04-22T17:13:59.326Z,2.30
2019-04-22T17:16:28.444Z,2.23
2019-04-22T17:18:58.397Z,2.30
2019-04-22T17:21:27.760Z,2.37
2019-04-22T17:23:56.259Z,2.30
2019-04-22T17:26:26.308Z,2.33
2019-04-22T17:28:55.508Z,2.50
2019-04-22T17:31:24.823Z,2.30
2019-04-22T17:33:53.246Z,2.53
2019-04-22T17:36:22.371Z,2.67
2019-04-22T17:39:00.788Z,2.53
2019-04-22T17:41:34.174Z,2.70
2019-04-22T17:44:18.616Z,2.53
2019-04-22T17:46:40.221Z,2.23
2019-04-22T17:49:26.766Z,2.47
2019-04-22T17:52:10.425Z,2.77
2019-04-22T17:54:38.496Z,2.67
2019-04-22T17:57:08.127Z,3.00
2019-04-22T17:59:38.161Z,2.97
2019-04-22T18:02:02.151Z,2.50
2019-04-22T18:04:17.996Z,2.70
2019-04-22T18:07:15.386Z,3.00
2019-04-22T18:09:53.686Z,2.60
2019-04-22T18:12:16.325Z,3.07
2019-04-22T18:14:48.504Z,2.30
2019-04-22T18:17:11.562Z,2.60
2019-04-22T18:19:35.066Z,2.60
2019-04-22T18:22:03.691Z,2.97
2019-04-22T18:24:28.378Z,2.80
2019-04-22T18:27:29.053Z,2.97
2019-04-22T18:29:37.442Z,2.60
2019-04-22T18:32:00.426Z,2.70
2019-04-22T18:34:32.320Z,2.80
2019-04-22T18:37:04.261Z,2.80
2019-04-22T18:39:40.816Z,2.80
2019-04-22T18:42:06.040Z,2.80
2019-04-22T18:44:40.261Z,3.07
2019-04-22T18:47:10.613Z,3.00
2019-04-22T18:49:37.620Z,2.97
2019-04-22T18:52:17.418Z,2.70
2019-04-22T18:54:48.494Z,2.67
2019-04-22T18:57:15.183Z,2.90
2019-04-22T18:59:34.616Z,2.93
2019-04-22T19:02:10.468Z,3.20
2019-04-22T19:04:40.730Z,2.90
2019-04-22T19:07:31.046Z,2.57
2019-04-22T19:12:30.685Z,3.10
2019-04-22T19:14:59.019Z,2.90
2019-04-22T19:17:35.624Z,2.70
2019-04-22T19:20:02.720Z,2.87
2019-04-22T19:22:29.857Z,2.70
2019-04-22T19:24:50.745Z,2.80
2019-04-22T19:27:24.803Z,3.17
2019-04-22T19:29:57.672Z,2.60
2019-04-22T19:32:25.532Z,2.73
2019-04-22T19:34:53.011Z,2.90
2019-04-22T19:37:25.269Z,2.50
2019-04-22T19:40:03.485Z,3.10
2019-04-22T19:42:31.760Z,2.83
2019-04-22T19:44:55.327Z,2.70
2019-04-22T19:47:34.110Z,2.60
2019-04-22T19:50:05.638Z,2.43
2019-04-22T19:52:28.878Z,3.10
2019-04-22T19:55:01.834Z,3.10
2019-04-22T19:57:26.490Z,3.00
2019-04-22T19:59:55.886Z,2.43
2019-04-22T20:02:33.218Z,2.73
2019-04-22T20:05:10.769Z,3.00
2019-04-22T20:07:40.599Z,3.10
2019-04-22T20:10:16.222Z,3.03
2019-04-22T20:12:39.752Z,2.93
2019-04-22T20:15:09.996Z,2.97
2019-04-22T20:17:59.396Z,3.30
2019-04-22T20:20:17.880Z,3.07
2019-04-22T20:22:47.128Z,3.13
2019-04-22T20:25:04.684Z,3.23
2019-04-22T20:27:51.034Z,3.40
2019-04-22T20:30:17.640Z,3.10
2019-04-22T20:32:43.053Z,3.60
2019-04-22T20:35:16.212Z,3.20
2019-04-22T20:37:49.721Z,3.10
2019-04-22T20:40:16.841Z,3.17
2019-04-22T20:45:15.012Z,3.00
2019-04-22T20:47:42.599Z,2.93
2019-04-22T20:50:21.742Z,3.50
2019-04-22T20:52:53.966Z,3.77
2019-04-22T20:55:13.057Z,3.10
2019-04-22T20:57:59.094Z,3.83
2019-04-22T21:00:15.421Z,3.17
2019-04-22T21:02:37.475Z,3.30
2019-04-22T21:05:13.521Z,3.63
2019-04-22T21:07:48.314Z,3.13
2019-04-22T21:10:16.950Z,3.30
2019-04-22T21:12:38.429Z,3.80
2019-04-22T21:15:26.735Z,3.70
2019-04-22T21:17:45.920Z,4.10
2019-04-22T21:20:28.651Z,3.93
2019-04-22T21:22:48.197Z,4.43
2019-04-22T21:25:15.317Z,4.10
2019-04-22T21:27:52.785Z,3.73
2019-04-22T21:30:19.997Z,3.87
2019-04-22T21:32:48.851Z,3.90
2019-04-22T21:35:32.124Z,3.90
2019-04-22T21:41:25.006Z,4.17
2019-04-22T21:44:12.457Z,4.20
2019-04-22T21:47:51.801Z,4.47
2019-04-22T21:50:32.309Z,4.47
2019-04-22T21:52:42.550Z,4.57
2019-04-22T21:55:16.643Z,4.13
2019-04-22T21:57:57.752Z,4.63
2019-04-22T22:00:31.094Z,4.57
2019-04-22T22:02:58.491Z,4.50
2019-04-22T22:05:15.359Z,4.67
2019-04-22T22:07:34.559Z,4.43
2019-04-22T22:10:23.997Z,4.30
2019-04-22T22:12:54.805Z,4.70
2019-04-22T22:15:24.832Z,4.27
2019-04-22T22:17:52.736Z,4.83
2019-04-22T22:20:21.626Z,4.47
2019-04-22T22:23:00.336Z,4.53
2019-04-22T22:25:26.553Z,4.13
2019-04-22T22:27:59.860Z,4.43
2019-04-22T22:30:42.893Z,4.90
2019-04-22T22:33:04.356Z,4.67
2019-04-22T22:35:29.533Z,4.60
2019-04-22T22:37:57.516Z,4.73
2019-04-22T22:40:13.399Z,4.70
2019-04-22T22:42:44.475Z,4.50
2019-04-22T22:45:21.550Z,5.27
2019-04-22T22:48:12.241Z,5.27
2019-04-22T22:50:31.381Z,4.33
2019-04-22T22:55:37.505Z,5.37
2019-04-22T22:58:03.989Z,5.43
2019-04-22T23:00:33.791Z,5.23
2019-04-22T23:05:40.213Z,5.20
2019-04-22T23:08:15.724Z,5.07
2019-04-22T23:10:50.294Z,5.10
2019-04-22T23:15:27.782Z,5.30
2019-04-22T23:17:45.720Z,5.27
2019-04-22T23:20:18.500Z,5.33
2019-04-22T23:23:12.355Z,4.90
2019-04-22T23:28:03.963Z,5.50
2019-04-22T23:30:40.934Z,4.70
2019-04-22T23:33:27.720Z,5.13
2019-04-22T23:35:56.605Z,4.90
2019-04-22T23:38:24.174Z,5.30
2019-04-22T23:41:00.143Z,5.17
2019-04-22T23:43:32.557Z,5.57
2019-04-22T23:46:02.692Z,5.43
2019-04-22T23:48:27.226Z,5.30
2019-04-22T23:51:02.857Z,6.03
2019-04-22T23:53:57.987Z,6.17
2019-04-22T23:56:12.631Z,5.50
2019-04-22T23:58:52.687Z,5.70
